Time;durP1;ratioP1;P1;durP2;ratioP2;P2;SDS_P1;SDS_P2;PMS_P1;PMS_P2;Temp;Humidity;BMP_temperature;BMP_pressure;BME280_temperature;BME280_humidity;BME280_pressure;Samples;Min_cycle;Max_cycle;Signal;HPM_P1;HPM_P2
2021/01/03 00:02:59;;;;;;;176.42;77.95;;;;;;;1.97;77.68;100178.95;2150111;82;33177;-65
2021/01/03 00:06:02;;;;;;;185.48;83.15;;;;;;;1.97;77.73;100180.70;2150067;82;28865;-65
2021/01/03 00:09:05;;;;;;;184.45;81.90;;;;;;;1.94;77.66;100182.95;2150095;82;27638;-64
2021/01/03 00:12:09;;;;;;;172.60;81.45;;;;;;;1.94;77.72;100184.27;2150285;82;29649;-65
2021/01/03 00:15:15;;;;;;;179.42;80.60;;;;;;;1.92;77.66;100185.17;2149664;82;31467;-66
2021/01/03 00:18:18;;;;;;;183.18;83.22;;;;;;;1.90;77.82;100183.89;2149916;82;33107;-65
2021/01/03 00:21:21;;;;;;;178.05;82.15;;;;;;;1.89;77.74;100175.53;2116600;82;29303;-65
2021/01/03 00:24:24;;;;;;;177.12;81.57;;;;;;;1.90;77.93;100172.47;2150092;82;27779;-65
2021/01/03 00:27:26;;;;;;;174.32;80.07;;;;;;;1.94;77.94;100181.62;2150179;82;29256;-65
2021/01/03 00:30:30;;;;;;;171.93;78.00;;;;;;;1.97;77.93;100174.98;2150152;82;32213;-65
2021/01/03 00:33:33;;;;;;;184.10;84.77;;;;;;;1.97;77.91;100170.13;2149958;82;33116;-65
2021/01/03 00:36:35;;;;;;;166.05;77.85;;;;;;;1.99;77.97;100174.09;2150173;82;28857;-65
2021/01/03 00:39:39;;;;;;;185.40;84.25;;;;;;;1.95;78.01;100158.71;2148268;82;27618;-65
2021/01/03 00:42:42;;;;;;;187.45;83.12;;;;;;;1.97;77.99;100167.48;2150098;82;28819;-65
2021/01/03 00:45:45;;;;;;;183.57;83.95;;;;;;;1.90;77.93;100168.50;2150206;82;32124;-65
2021/01/03 00:48:48;;;;;;;163.57;73.85;;;;;;;1.89;78.07;100168.94;2151771;81;33111;-66
2021/01/03 00:51:51;;;;;;;161.37;74.67;;;;;;;1.90;78.17;100179.07;2117969;84;28080;-65
2021/01/03 00:54:53;;;;;;;174.27;79.75;;;;;;;1.91;78.20;100172.86;2117821;84;27652;-65
2021/01/03 00:57:55;;;;;;;159.75;76.17;;;;;;;1.94;78.24;100166.20;2117427;83;29742;-65
2021/01/03 01:00:58;;;;;;;161.25;72.92;;;;;;;1.96;78.26;100165.73;2117509;84;30749;-65
2021/01/03 01:04:00;;;;;;;152.30;69.17;;;;;;;1.94;78.20;100173.70;2117949;82;33558;-66
2021/01/03 01:07:03;;;;;;;170.47;73.70;;;;;;;1.93;78.28;100178.56;2118126;82;28915;-63
2021/01/03 01:10:09;;;;;;;180.75;78.92;;;;;;;1.88;78.25;100175.11;2115999;84;27674;-65
2021/01/03 01:13:12;;;;;;;165.57;74.30;;;;;;;1.86;78.29;100174.26;2115949;84;28819;-65
2021/01/03 01:16:15;;;;;;;168.95;77.25;;;;;;;1.88;78.51;100165.86;2115952;84;32134;-65
2021/01/03 01:19:18;;;;;;;171.50;76.80;;;;;;;1.87;78.39;100164.12;2116590;82;34353;-65
2021/01/03 01:22:20;;;;;;;177.30;77.65;;;;;;;1.86;78.46;100164.16;2117989;82;29301;-65
2021/01/03 01:25:27;;;;;;;176.32;80.60;;;;;;;1.85;78.46;100161.95;2117898;84;27730;-66
2021/01/03 01:28:29;;;;;;;175.70;75.90;;;;;;;1.87;78.53;100154.02;2121218;82;28894;-65
2021/01/03 01:31:31;;;;;;;171.35;77.62;;;;;;;1.90;78.58;100153.97;2117599;82;31153;-65
2021/01/03 01:34:35;;;;;;;179.57;81.72;;;;;;;1.91;78.51;100149.97;2117188;82;33185;-65
2021/01/03 01:37:37;;;;;;;186.18;83.00;;;;;;;1.91;78.63;100144.69;2129629;82;29032;-65
2021/01/03 01:40:42;;;;;;;178.68;80.15;;;;;;;1.92;78.60;100139.83;2141778;82;27581;-66
2021/01/03 01:43:44;;;;;;;182.62;78.83;;;;;;;1.93;78.64;100144.65;2142400;82;28843;-65
2021/01/03 01:47:06;;;;;;;173.15;78.97;;;;;;;1.94;78.64;100142.00;2153831;82;31328;-65
2021/01/03 01:50:11;;;;;;;185.12;80.03;;;;;;;1.95;78.64;100138.89;2146236;82;33053;-65
2021/01/03 01:53:26;;;;;;;174.77;79.00;;;;;;;1.96;78.61;100137.56;2150133;82;29665;-65
2021/01/03 01:57:01;;;;;;;172.45;77.62;;;;;;;1.97;78.68;100134.03;2147140;81;28176;-64
2021/01/03 02:00:25;;;;;;;178.50;77.22;;;;;;;2.01;78.70;100136.16;2102999;84;28911;-64
2021/01/03 02:03:45;;;;;;;176.25;78.50;;;;;;;2.04;78.66;100130.83;2164292;81;31145;-64
2021/01/03 02:06:55;;;;;;;177.12;78.45;;;;;;;2.10;78.70;100135.13;2182462;81;33559;-64
2021/01/03 02:10:27;;;;;;;168.70;75.50;;;;;;;2.16;78.69;100136.79;2113739;84;29277;-64
2021/01/03 02:13:40;;;;;;;177.43;78.20;;;;;;;2.17;78.54;100142.03;2107659;84;28140;-64
2021/01/03 02:16:43;;;;;;;169.45;77.17;;;;;;;2.18;78.51;100133.21;2117557;81;28820;-64
2021/01/03 02:19:45;;;;;;;166.85;73.87;;;;;;;2.22;78.61;100123.48;2133737;82;31518;-64
2021/01/03 02:22:56;;;;;;;180.45;77.80;;;;;;;2.25;78.55;100130.00;2181523;81;33126;-65
2021/01/03 02:25:59;;;;;;;167.65;75.67;;;;;;;2.30;78.65;100125.98;2159572;81;28027;-64
2021/01/03 02:29:05;;;;;;;164.97;76.55;;;;;;;2.28;78.45;100125.98;2175562;81;27836;-65
2021/01/03 02:32:08;;;;;;;173.43;76.22;;;;;;;2.28;78.50;100126.88;2145616;81;28828;-64
2021/01/03 02:35:12;;;;;;;170.30;76.70;;;;;;;2.30;78.53;100107.02;2175620;80;31084;-64
2021/01/03 02:38:20;;;;;;;174.32;79.05;;;;;;;2.31;78.62;100101.30;2175901;80;32893;-65
2021/01/03 02:41:22;;;;;;;164.47;78.67;;;;;;;2.32;78.52;100091.14;2175188;81;30188;-65
2021/01/03 02:44:25;;;;;;;173.72;75.22;;;;;;;2.27;78.50;100082.84;2162212;81;27595;-65
2021/01/03 02:47:33;;;;;;;175.45;77.25;;;;;;;2.25;78.51;100085.96;2137798;83;28901;-65
2021/01/03 02:50:36;;;;;;;173.35;78.97;;;;;;;2.24;78.59;100085.97;2162881;80;31146;-65
2021/01/03 02:53:39;;;;;;;166.57;74.17;;;;;;;2.26;78.66;100074.92;2178344;81;33231;-65
2021/01/03 02:56:41;;;;;;;159.72;72.82;;;;;;;2.28;78.69;100077.09;2178154;80;28925;-65
2021/01/03 02:59:43;;;;;;;153.45;72.25;;;;;;;2.32;78.80;100068.20;2213228;80;27630;-65
2021/01/03 03:02:47;;;;;;;160.57;74.50;;;;;;;2.36;78.73;100072.55;2181814;80;28817;-65
2021/01/03 03:05:49;;;;;;;160.72;73.97;;;;;;;2.40;78.71;100073.34;2190354;79;31128;-65
2021/01/03 03:08:51;;;;;;;158.78;72.87;;;;;;;2.42;78.62;100092.23;2162508;80;32728;-64
2021/01/03 03:11:53;;;;;;;153.10;69.95;;;;;;;2.47;78.71;100088.63;2208459;80;28860;-65
2021/01/03 03:14:56;;;;;;;148.72;71.67;;;;;;;2.53;78.76;100086.73;2149483;82;27811;-65
2021/01/03 03:18:00;;;;;;;162.68;71.70;;;;;;;2.60;78.74;100079.55;2174342;81;28892;-65
2021/01/03 03:21:03;;;;;;;152.35;69.80;;;;;;;2.64;78.52;100076.41;2205805;80;31596;-65
2021/01/03 03:24:07;;;;;;;155.10;70.20;;;;;;;2.67;78.49;100078.53;2216937;80;33193;-66
2021/01/03 03:27:09;;;;;;;148.20;69.22;;;;;;;2.69;78.33;100077.16;2194358;80;29726;-66
2021/01/03 03:30:16;;;;;;;158.75;72.05;;;;;;;2.70;78.31;100086.41;2178436;81;27643;-66
2021/01/03 03:33:19;;;;;;;154.10;73.90;;;;;;;2.70;78.24;100081.12;2178198;81;28813;-65
2021/01/03 03:36:21;;;;;;;144.75;67.45;;;;;;;2.70;78.35;100075.83;2178482;80;32541;-66
2021/01/03 03:39:25;;;;;;;149.53;73.92;;;;;;;2.71;78.30;100067.42;2178707;80;33072;-65
2021/01/03 03:42:27;;;;;;;162.12;73.55;;;;;;;2.66;78.23;100066.21;2178852;81;29821;-66
2021/01/03 03:45:30;;;;;;;160.78;75.97;;;;;;;2.62;78.35;100071.13;2145037;81;27631;-65
2021/01/03 03:48:32;;;;;;;147.98;71.40;;;;;;;2.62;78.40;100065.84;2179817;79;28824;-65
2021/01/03 03:51:34;;;;;;;155.70;71.37;;;;;;;2.52;78.29;100064.30;2189069;81;31136;-66
2021/01/03 03:54:36;;;;;;;148.40;68.57;;;;;;;2.45;78.45;100071.92;2177892;81;33496;-66
2021/01/03 03:57:38;;;;;;;145.68;70.55;;;;;;;2.44;78.57;100072.39;2216993;80;29146;-66
2021/01/03 04:00:41;;;;;;;159.55;73.50;;;;;;;2.46;78.67;100074.98;2182947;81;27733;-66
2021/01/03 04:03:43;;;;;;;145.72;70.40;;;;;;;2.49;78.70;100075.80;2183123;81;28879;-66
2021/01/03 04:06:45;;;;;;;157.32;75.57;;;;;;;2.48;78.53;100069.23;2182953;81;31192;-66
2021/01/03 04:09:47;;;;;;;150.87;75.50;;;;;;;2.47;78.68;100064.84;2176194;81;34039;-66
2021/01/03 04:12:49;;;;;;;148.47;72.47;;;;;;;2.45;78.75;100060.03;2182702;81;29216;-66
2021/01/03 04:15:52;;;;;;;158.93;74.27;;;;;;;2.48;78.85;100054.69;2182950;81;27730;-65
2021/01/03 04:18:54;;;;;;;137.90;70.55;;;;;;;2.46;78.79;100048.55;2180810;81;29240;-64
2021/01/03 04:22:00;;;;;;;137.62;69.47;;;;;;;2.42;78.81;100035.39;2183187;81;30750;-64
2021/01/03 04:25:03;;;;;;;145.55;72.85;;;;;;;2.37;78.77;100035.06;2182953;81;33973;-64
2021/01/03 04:28:05;;;;;;;142.10;70.50;;;;;;;2.35;78.95;100032.47;2182967;81;30018;-64
2021/01/03 04:31:08;;;;;;;139.00;69.72;;;;;;;2.35;79.06;100034.22;2183117;81;28055;-64
2021/01/03 04:34:12;;;;;;;139.28;71.33;;;;;;;2.33;79.09;100021.05;2181056;81;29336;-64
2021/01/03 04:37:17;;;;;;;143.60;69.80;;;;;;;2.30;79.14;100027.72;2183643;81;31191;-64
2021/01/03 04:40:27;;;;;;;133.45;67.12;;;;;;;2.28;79.29;100033.05;2183098;81;34443;-65
2021/01/03 04:43:30;;;;;;;124.42;62.48;;;;;;;2.24;79.30;100030.47;2182939;81;29136;-64
2021/01/03 04:46:38;;;;;;;137.25;69.35;;;;;;;2.22;79.51;100023.05;2183012;81;27765;-65
2021/01/03 04:49:48;;;;;;;138.72;74.60;;;;;;;2.18;79.47;100013.43;2180268;81;29906;-65
2021/01/03 04:53:10;;;;;;;135.37;74.45;;;;;;;2.15;79.60;100018.34;2195101;80;32133;-64
2021/01/03 04:56:26;;;;;;;135.85;74.30;;;;;;;2.12;79.66;100016.61;2168218;82;35474;-65
2021/01/03 04:59:40;;;;;;;135.75;69.27;;;;;;;2.10;79.78;100001.69;2208087;80;29714;-67
2021/01/03 05:02:47;;;;;;;128.68;67.30;;;;;;;2.07;79.83;100001.28;2175912;80;27659;-65
2021/01/03 05:05:51;;;;;;;118.75;62.78;;;;;;;2.06;79.88;99991.64;2206273;80;29585;-66
2021/01/03 05:08:58;;;;;;;122.35;63.78;;;;;;;2.05;79.90;99987.69;2215485;80;31133;-66
2021/01/03 05:12:26;;;;;;;115.30;63.52;;;;;;;2.03;80.00;99985.52;2217382;80;33178;-66
2021/01/03 05:15:32;;;;;;;127.45;68.45;;;;;;;2.00;80.14;99991.75;2217042;79;30109;-66
2021/01/03 05:18:34;;;;;;;127.58;66.33;;;;;;;2.00;80.28;99981.19;2168890;82;28244;-67
2021/01/03 05:21:52;;;;;;;134.80;66.62;;;;;;;2.01;80.29;99995.25;2171590;80;29247;-67
2021/01/03 05:24:58;;;;;;;122.82;62.00;;;;;;;2.00;80.39;99990.86;2217317;80;31072;-68
2021/01/03 05:28:08;;;;;;;109.65;56.83;;;;;;;2.00;80.49;99986.90;2217366;80;33094;-69
2021/01/03 05:31:20;;;;;;;114.03;61.33;;;;;;;1.97;80.64;99982.55;2181701;80;29166;-68
2021/01/03 05:34:36;;;;;;;119.08;63.13;;;;;;;1.93;80.69;99986.16;2211207;80;27776;-69
2021/01/03 05:37:40;;;;;;;119.35;58.83;;;;;;;1.92;80.89;99993.66;2212139;79;29801;-64
2021/01/03 05:40:44;;;;;;;131.20;66.02;;;;;;;1.90;81.20;99984.45;2180874;80;31323;-67
2021/01/03 05:43:56;;;;;;;122.47;66.10;;;;;;;1.88;81.02;99989.35;2170239;80;35474;-66
2021/01/03 05:47:28;;;;;;;120.28;64.95;;;;;;;1.87;81.26;99992.42;2132097;82;30049;-67
2021/01/03 05:50:37;;;;;;;128.55;65.83;;;;;;;1.85;81.20;99987.62;2148485;82;27831;-68
2021/01/03 05:53:39;;;;;;;127.12;64.45;;;;;;;1.81;81.58;99981.53;2142387;82;29752;-69
2021/01/03 05:56:43;;;;;;;126.10;67.20;;;;;;;1.77;81.98;99982.95;2173009;81;31137;-72
2021/01/03 05:59:46;;;;;;;126.38;66.60;;;;;;;1.74;81.87;99977.25;2119336;83;33182;-72
2021/01/03 06:02:49;;;;;;;123.65;67.62;;;;;;;1.73;81.57;99967.62;2146667;81;29024;-69
2021/01/03 06:05:56;;;;;;;124.92;66.60;;;;;;;1.73;81.89;99978.18;2178967;81;27807;-69
2021/01/03 06:08:59;;;;;;;126.82;68.60;;;;;;;1.72;81.84;99972.91;2195033;81;28891;-68
2021/01/03 06:12:16;;;;;;;137.25;67.62;;;;;;;1.73;82.07;99973.33;2194994;80;31216;-70
2021/01/03 06:15:18;;;;;;;121.37;65.83;;;;;;;1.74;82.08;99965.83;2194933;81;34047;-69
2021/01/03 06:18:50;;;;;;;118.10;62.35;;;;;;;1.72;82.00;99973.80;2194988;80;30309;-64
2021/01/03 06:21:54;;;;;;;128.00;65.15;;;;;;;1.73;82.28;99972.01;2192536;81;27586;-66
2021/01/03 06:24:57;;;;;;;125.05;64.80;;;;;;;1.71;82.24;99980.41;2194813;80;29271;-67
2021/01/03 06:28:25;;;;;;;120.15;60.78;;;;;;;1.74;82.24;99982.53;2164659;81;30970;-69
2021/01/03 06:31:48;;;;;;;121.35;62.78;;;;;;;1.78;82.24;99986.86;2096322;84;34366;-65
2021/01/03 06:34:58;;;;;;;115.92;62.08;;;;;;;1.84;82.43;99994.27;2141230;81;29024;-69
2021/01/03 06:38:15;;;;;;;121.87;63.45;;;;;;;1.87;82.28;99996.85;2195160;81;27703;-67
2021/01/03 06:41:30;;;;;;;127.50;66.57;;;;;;;1.87;82.32;100004.31;2194243;81;29781;-71
2021/01/03 06:45:26;;;;;;;126.35;64.20;;;;;;;1.86;82.37;99993.33;2131127;81;31215;-74
2021/01/03 06:49:10;;;;;;;132.20;69.87;;;;;;;1.89;82.36;99987.13;2152973;82;33171;-65
2021/01/03 06:52:26;;;;;;;123.78;61.83;;;;;;;1.91;82.40;100008.65;2168530;81;31458;-67
2021/01/03 06:56:01;;;;;;;121.07;64.27;;;;;;;1.94;82.71;100015.62;2168893;80;27806;-69
2021/01/03 06:59:18;;;;;;;129.32;66.45;;;;;;;1.95;82.35;100011.66;2044587;85;28829;-74
2021/01/03 07:02:22;;;;;;;130.93;66.37;;;;;;;1.93;82.33;100018.73;2022297;87;31586;-71
2021/01/03 07:05:35;;;;;;;119.43;62.90;;;;;;;1.95;82.70;100006.37;2297460;77;33920;-70
2021/01/03 07:08:48;;;;;;;127.00;66.95;;;;;;;1.90;82.63;100017.47;2217056;80;27724;-68
2021/01/03 07:11:59;;;;;;;115.15;61.63;;;;;;;1.88;82.53;100002.56;2202182;80;28833;-63
2021/01/03 07:15:05;;;;;;;111.25;56.15;;;;;;;1.89;82.53;100003.84;2178248;80;31244;-64
2021/01/03 07:18:36;;;;;;;120.70;62.10;;;;;;;1.90;82.79;99996.34;2178601;81;33991;-65
2021/01/03 07:21:43;;;;;;;140.95;72.40;;;;;;;1.93;82.56;100001.56;2195781;81;29491;-68
2021/01/03 07:24:57;;;;;;;117.45;63.95;;;;;;;1.97;82.65;99995.77;2197642;81;28253;-67
2021/01/03 07:28:19;;;;;;;121.33;60.85;;;;;;;2.01;82.53;100010.67;2197571;80;28824;-64
2021/01/03 07:31:49;;;;;;;117.73;60.33;;;;;;;2.07;82.52;99996.46;2342832;76;27682;-66
2021/01/03 07:34:53;;;;;;;104.25;53.73;;;;;;;2.03;82.44;100013.27;2304344;77;27913;-73
2021/01/03 07:38:24;;;;;;;121.80;61.83;;;;;;;2.03;82.57;100000.94;2265010;78;29696;-67
2021/01/03 07:41:29;;;;;;;113.08;55.67;;;;;;;2.03;82.46;100006.23;2264814;77;32015;-65
2021/01/03 07:44:33;;;;;;;110.37;57.35;;;;;;;2.07;82.62;100002.59;2216174;80;33135;-64
2021/01/03 07:47:40;;;;;;;111.42;60.15;;;;;;;2.10;82.49;100007.83;2260058;78;28509;-67
2021/01/03 07:50:43;;;;;;;108.57;60.48;;;;;;;2.12;82.52;100011.78;2217851;80;28220;-70
2021/01/03 07:53:45;;;;;;;126.60;64.87;;;;;;;2.17;82.60;100012.55;2215252;80;29274;-64
2021/01/03 07:56:48;;;;;;;112.00;57.58;;;;;;;2.22;82.75;100014.66;2238504;79;31137;-66
2021/01/03 07:59:50;;;;;;;107.45;57.93;;;;;;;2.25;82.57;100006.67;2219449;80;33914;-65
2021/01/03 08:03:00;;;;;;;107.35;55.92;;;;;;;2.30;82.46;100007.03;2216653;78;28861;-71
2021/01/03 08:06:08;;;;;;;108.80;59.50;;;;;;;2.34;82.48;100009.58;2191900;80;27833;-73
2021/01/03 08:09:11;;;;;;;125.97;66.45;;;;;;;2.36;82.36;100008.21;2245848;77;29767;-64
2021/01/03 08:12:32;;;;;;;113.47;60.38;;;;;;;2.38;82.50;100009.94;2282881;77;31697;-67
2021/01/03 08:15:36;;;;;;;111.72;57.40;;;;;;;2.38;82.27;100004.66;2239819;79;32278;-67
2021/01/03 08:18:46;;;;;;;109.17;57.67;;;;;;;2.39;82.48;99998.91;2237955;77;28863;-66
2021/01/03 08:21:55;;;;;;;117.10;62.15;;;;;;;2.40;82.42;99995.36;2200332;77;27757;-63
2021/01/03 08:25:01;;;;;;;120.82;64.65;;;;;;;2.42;82.35;99995.73;2219621;80;28813;-67
2021/01/03 08:28:21;;;;;;;122.02;64.95;;;;;;;2.39;82.30;100001.55;2219562;79;31129;-63
2021/01/03 08:31:26;;;;;;;108.65;58.95;;;;;;;2.35;82.34;99993.25;2219124;80;34009;-70
2021/01/03 08:34:32;;;;;;;119.35;60.95;;;;;;;2.35;82.54;99992.81;2219757;80;35406;-63
2021/01/03 08:37:42;;;;;;;122.95;67.15;;;;;;;2.36;82.48;99991.91;2219742;80;27716;-66
2021/01/03 08:40:45;;;;;;;122.80;66.30;;;;;;;2.41;82.59;99999.75;2219363;79;29764;-66
2021/01/03 08:43:48;;;;;;;124.87;64.40;;;;;;;2.44;82.69;99995.72;2278812;77;32022;-66
2021/01/03 08:47:08;;;;;;;110.40;60.58;;;;;;;2.47;82.66;100001.38;2287965;77;33962;-70
2021/01/03 08:50:21;;;;;;;123.87;66.77;;;;;;;2.49;82.58;100005.72;2218689;80;29722;-67
2021/01/03 08:53:25;;;;;;;107.00;55.45;;;;;;;2.55;82.81;100012.22;2263624;77;27607;-76
2021/01/03 08:56:33;;;;;;;97.92;54.73;;;;;;;2.69;82.99;100012.36;2256312;77;29554;-75
2021/01/03 08:59:36;;;;;;;112.20;61.48;;;;;;;2.85;83.15;100004.51;2300255;77;31151;-70
2021/01/03 09:02:42;;;;;;;129.30;69.53;;;;;;;2.98;83.04;100013.51;2212771;79;33109;-73
2021/01/03 09:05:48;;;;;;;152.70;75.85;;;;;;;3.10;83.06;100014.54;2234458;79;29722;-72
2021/01/03 09:08:51;;;;;;;112.47;58.17;;;;;;;3.22;82.76;100025.30;2234733;79;27576;-74
2021/01/03 09:12:00;;;;;;;184.57;97.20;;;;;;;3.31;82.78;100018.91;2233000;79;28799;-74
2021/01/03 09:15:08;;;;;;;116.95;65.83;;;;;;;3.39;82.45;100022.23;2212017;80;31695;-73
2021/01/03 09:18:25;;;;;;;103.32;60.75;;;;;;;3.42;81.98;100021.27;2212011;80;34038;-71
2021/01/03 09:21:28;;;;;;;98.62;53.05;;;;;;;3.38;81.69;100026.25;2211886;80;28859;-73
2021/01/03 09:24:35;;;;;;;115.47;58.45;;;;;;;3.32;81.69;100008.27;2206395;80;27699;-67
2021/01/03 09:27:38;;;;;;;102.50;55.85;;;;;;;3.32;81.76;100012.68;2207500;79;28803;-70
2021/01/03 09:30:43;;;;;;;102.53;54.55;;;;;;;3.24;81.63;100011.55;2224998;78;31137;-73
2021/01/03 09:33:51;;;;;;;98.40;52.38;;;;;;;3.22;81.83;100004.55;2215123;80;34235;-74
2021/01/03 09:37:14;;;;;;;91.45;50.28;;;;;;;3.23;81.88;100007.16;2214394;80;29798;-71
2021/01/03 09:40:38;;;;;;;101.12;52.98;;;;;;;3.27;81.90;100007.97;2185720;81;27818;-72
2021/01/03 09:44:22;;;;;;;86.85;50.55;;;;;;;3.30;81.92;100007.91;2226733;78;30275;-75
2021/01/03 09:47:36;;;;;;;127.40;62.38;;;;;;;3.34;81.92;100011.75;2222076;79;31977;-72
2021/01/03 09:50:46;;;;;;;96.22;51.28;;;;;;;3.36;81.76;100028.06;2191119;81;33358;-74
2021/01/03 09:53:57;;;;;;;98.60;54.45;;;;;;;3.35;81.62;100008.64;2194880;81;29629;-74
2021/01/03 09:56:59;;;;;;;86.22;50.48;;;;;;;3.32;81.57;100002.97;2194577;81;27752;-75
2021/01/03 10:00:13;;;;;;;84.52;48.20;;;;;;;3.29;81.45;99995.58;2195112;81;29696;-74
2021/01/03 10:03:24;;;;;;;105.07;59.85;;;;;;;3.27;81.55;99991.62;2197916;78;31227;-66
2021/01/03 10:06:35;;;;;;;88.58;52.38;;;;;;;3.25;81.61;99995.22;2201683;78;34562;-66
2021/01/03 10:09:39;;;;;;;96.32;52.98;;;;;;;3.26;81.73;99990.34;2232894;79;29722;-66
2021/01/03 10:12:41;;;;;;;92.05;50.40;;;;;;;3.28;81.83;99996.48;2234022;79;27671;-66
2021/01/03 10:15:49;;;;;;;87.95;50.28;;;;;;;3.30;81.67;100000.81;2230955;79;29074;-66
2021/01/03 10:18:52;;;;;;;89.20;50.50;;;;;;;3.30;81.45;99994.66;2210426;80;31137;-65
2021/01/03 10:21:54;;;;;;;124.80;70.15;;;;;;;3.27;81.41;99996.06;2215035;80;34058;-63
2021/01/03 10:25:04;;;;;;;95.25;54.23;;;;;;;3.27;81.49;99978.85;2210533;80;28968;-63
2021/01/03 10:28:14;;;;;;;97.88;53.87;;;;;;;3.22;81.36;99985.59;2200758;80;27713;-65
2021/01/03 10:31:17;;;;;;;92.00;52.48;;;;;;;3.16;81.48;99975.14;2183151;80;28888;-65
2021/01/03 10:34:21;;;;;;;87.70;48.42;;;;;;;3.17;81.57;99982.17;2256310;78;32043;-66
2021/01/03 10:37:24;;;;;;;94.70;51.47;;;;;;;3.18;81.65;99975.98;2208617;80;33161;-66
2021/01/03 10:40:26;;;;;;;93.20;52.93;;;;;;;3.21;81.64;99998.84;2160475;80;29119;-66
2021/01/03 10:43:29;;;;;;;89.32;48.75;;;;;;;3.22;81.80;99994.86;2264807;78;27559;-68
2021/01/03 10:46:31;;;;;;;109.60;58.20;;;;;;;3.24;81.94;99992.16;2176691;81;28806;-66
2021/01/03 10:49:33;;;;;;;99.58;53.48;;;;;;;3.25;82.05;99994.75;2178370;79;31543;-66
2021/01/03 10:52:36;;;;;;;87.97;49.42;;;;;;;3.27;81.80;99985.00;2228746;78;33150;-67
2021/01/03 10:55:39;;;;;;;96.17;53.33;;;;;;;3.24;82.15;99972.30;2215615;80;29882;-66
2021/01/03 10:58:41;;;;;;;96.12;51.75;;;;;;;3.25;82.36;99974.05;2223358;78;27795;-62
2021/01/03 11:01:45;;;;;;;90.62;51.48;;;;;;;3.23;81.99;99975.86;2234434;78;29268;-61
2021/01/03 11:04:48;;;;;;;95.83;53.90;;;;;;;3.17;82.08;99956.56;2209224;79;31216;-63
2021/01/03 11:07:51;;;;;;;96.47;52.30;;;;;;;3.16;82.29;99958.79;2201268;79;34250;-65
2021/01/03 11:10:54;;;;;;;95.97;54.65;;;;;;;3.17;82.02;99959.67;2223540;78;28897;-61
2021/01/03 11:13:57;;;;;;;95.80;54.70;;;;;;;3.21;82.24;99945.91;2217911;79;27740;-65
2021/01/03 11:16:59;;;;;;;94.52;55.05;;;;;;;3.27;82.20;99940.47;2216906;79;29545;-64
2021/01/03 11:20:04;;;;;;;102.22;56.08;;;;;;;3.31;82.27;99935.05;2209244;80;31156;-65
2021/01/03 11:23:09;;;;;;;114.60;62.70;;;;;;;3.38;82.15;99930.92;2222685;78;33752;-62
2021/01/03 11:26:11;;;;;;;;;;;;;;;3.44;82.20;99928.98;2234093;79;28850;-63
2021/01/03 11:29:17;;;;;;;85.62;46.30;;;;;;;3.56;82.34;99927.77;2211625;78;28256;-62
2021/01/03 11:32:24;;;;;;;100.95;56.60;;;;;;;3.63;81.75;99926.70;2212551;79;29923;-62
2021/01/03 11:35:28;;;;;;;97.15;57.25;;;;;;;3.66;81.83;99927.06;2196494;79;31114;-64
2021/01/03 11:38:30;;;;;;;116.12;60.50;;;;;;;3.64;81.44;99928.91;2203837;79;33114;-63
2021/01/03 11:41:33;;;;;;;134.30;76.47;;;;;;;3.62;81.51;99924.11;2205845;79;28652;-62
2021/01/03 11:44:37;;;;;;;127.30;64.95;;;;;;;3.60;81.58;99912.21;2209941;79;27829;-62
2021/01/03 11:47:41;;;;;;;112.37;60.80;;;;;;;3.59;81.56;99919.74;2204222;79;28221;-68
2021/01/03 11:50:44;;;;;;;107.78;59.73;;;;;;;3.60;81.55;99921.95;2211682;79;31142;-63
2021/01/03 11:53:47;;;;;;;111.35;59.23;;;;;;;3.60;81.55;99923.28;2217156;79;33974;-62
2021/01/03 11:56:55;;;;;;;100.70;55.28;;;;;;;3.61;81.44;99914.42;2200615;79;28862;-72
2021/01/03 11:59:57;;;;;;;100.38;56.95;;;;;;;3.62;81.63;99924.11;2202979;79;27714;-69
2021/01/03 12:03:00;;;;;;;94.00;50.88;;;;;;;3.67;81.50;99925.30;2211835;79;28829;-71
2021/01/03 12:06:02;;;;;;;101.55;56.33;;;;;;;3.69;81.36;99916.39;2203036;79;31201;-64
2021/01/03 12:09:05;;;;;;;104.83;58.05;;;;;;;3.68;81.29;99916.45;2205813;79;34138;-65
2021/01/03 12:12:12;;;;;;;93.37;47.83;;;;;;;3.69;81.24;99903.62;2201127;79;29780;-69
2021/01/03 12:15:17;;;;;;;121.85;63.23;;;;;;;3.63;80.53;99908.63;2203401;79;27699;-71
2021/01/03 12:18:20;;;;;;;111.45;59.18;;;;;;;3.55;81.04;99903.98;2204817;79;28855;-67
2021/01/03 12:21:26;;;;;;;116.95;61.58;;;;;;;3.49;81.15;99909.84;2200100;79;31132;-69
2021/01/03 12:24:30;;;;;;;105.63;58.80;;;;;;;3.45;81.22;99907.33;2208223;79;33187;-68
2021/01/03 12:27:32;;;;;;;97.42;52.90;;;;;;;3.43;81.18;99908.70;2207526;79;28862;-72
2021/01/03 12:30:34;;;;;;;113.32;59.77;;;;;;;3.41;81.33;99905.23;2210469;79;27638;-70
2021/01/03 12:33:37;;;;;;;105.65;58.05;;;;;;;3.39;81.21;99906.19;2202162;79;28818;-72
2021/01/03 12:36:39;;;;;;;101.65;58.28;;;;;;;3.37;81.30;99905.36;2213438;79;31137;-70
2021/01/03 12:39:42;;;;;;;115.90;59.10;;;;;;;3.37;81.32;99906.22;2204457;79;34031;-67
2021/01/03 12:42:47;;;;;;;105.35;57.27;;;;;;;3.36;81.49;99912.41;2202980;79;29204;-69
2021/01/03 12:45:49;;;;;;;107.83;58.20;;;;;;;3.32;81.31;99910.31;2204387;79;27676;-65
2021/01/03 12:48:52;;;;;;;96.22;53.08;;;;;;;3.32;81.53;99918.25;2194666;79;28461;-67
2021/01/03 12:51:54;;;;;;;102.07;54.40;;;;;;;3.37;81.55;99915.95;2197809;79;32011;-72
2021/01/03 12:54:56;;;;;;;90.65;46.98;;;;;;;3.40;81.55;99918.05;2203380;79;34068;-65
2021/01/03 12:57:59;;;;;;;89.32;50.88;;;;;;;3.43;81.43;99923.71;2204016;79;30081;-66
2021/01/03 13:01:01;;;;;;;86.85;48.50;;;;;;;3.41;81.29;99914.94;2206170;79;27785;-68
2021/01/03 13:04:08;;;;;;;93.52;51.42;;;;;;;3.39;81.25;99905.72;2217171;79;29784;-68
2021/01/03 13:07:11;;;;;;;99.37;53.02;;;;;;;3.35;81.01;99912.00;2208006;79;31771;-65
2021/01/03 13:10:15;;;;;;;90.35;46.33;;;;;;;3.31;81.07;99913.02;2230721;79;34053;-65
2021/01/03 13:13:17;;;;;;;100.72;53.52;;;;;;;3.25;80.94;99917.13;2231988;79;29829;-64
2021/01/03 13:16:21;;;;;;;95.72;49.88;;;;;;;3.22;81.17;99918.09;2216521;79;27676;-64
2021/01/03 13:19:23;;;;;;;97.92;49.48;;;;;;;3.25;81.25;99924.60;2202383;79;28824;-63
2021/01/03 13:22:28;;;;;;;113.80;57.90;;;;;;;3.28;81.11;99915.73;2211311;79;32540;-71
2021/01/03 13:25:30;;;;;;;114.88;58.73;;;;;;;3.31;81.20;99922.28;2206086;79;33478;-68
2021/01/03 13:28:33;;;;;;;120.65;60.28;;;;;;;3.28;81.05;99913.09;2204396;79;29617;-67
2021/01/03 13:31:36;;;;;;;121.17;59.93;;;;;;;3.23;81.11;99907.89;2208029;78;27832;-64
2021/01/03 13:34:38;;;;;;;117.20;59.73;;;;;;;3.21;81.09;99904.88;2211211;79;28816;-67
2021/01/03 13:37:40;;;;;;;113.77;58.55;;;;;;;3.21;81.26;99911.05;2208871;78;31137;-66
2021/01/03 13:40:43;;;;;;;103.02;49.40;;;;;;;3.23;81.33;99910.53;2205534;78;33241;-66
2021/01/03 13:43:46;;;;;;;171.37;73.42;;;;;;;3.24;81.20;99922.01;2201490;79;29412;-69
2021/01/03 13:46:55;;;;;;;117.93;60.48;;;;;;;3.25;81.14;99926.39;2201206;79;28186;-67
2021/01/03 13:49:57;;;;;;;101.10;52.62;;;;;;;3.27;81.18;99929.41;2214169;79;28661;-66
2021/01/03 13:53:02;;;;;;;91.53;46.88;;;;;;;3.31;80.97;99935.52;2207572;79;32426;-64
2021/01/03 13:56:04;;;;;;;104.77;52.90;;;;;;;3.31;80.53;99934.19;2197409;78;33170;-64
2021/01/03 13:59:07;;;;;;;107.70;53.52;;;;;;;3.23;80.38;99928.20;2199529;79;29163;-67
2021/01/03 14:02:10;;;;;;;88.90;43.98;;;;;;;3.17;80.58;99925.27;2204785;78;27644;-64
2021/01/03 14:05:14;;;;;;;110.80;55.92;;;;;;;3.14;80.63;99934.60;2199985;78;28883;-65
2021/01/03 14:08:17;;;;;;;119.72;56.13;;;;;;;3.07;80.72;99936.53;2209972;79;31128;-63
2021/01/03 14:11:28;;;;;;;101.02;52.93;;;;;;;3.06;80.87;99937.44;2203472;79;33467;-65
2021/01/03 14:14:30;;;;;;;109.97;54.85;;;;;;;3.03;80.76;99943.69;2177142;80;29406;-64
2021/01/03 14:17:35;;;;;;;112.90;56.65;;;;;;;3.04;80.92;99945.43;2199231;79;27645;-68